createdAt,value
2022-09-09T00:00:18.645Z,97734.66
2022-09-09T00:03:14.241Z,97727.19
2022-09-09T00:05:48.673Z,97726.78
2022-09-09T00:08:22.461Z,97724.03
2022-09-09T00:10:56.361Z,97720.50
2022-09-09T00:13:30.132Z,97725.59
2022-09-09T00:16:06.034Z,97729.94
2022-09-09T00:18:49.394Z,97729.16
2022-09-09T00:21:18.512Z,97730.72
2022-09-09T00:23:52.483Z,97731.50
2022-09-09T00:26:28.252Z,97729.94
2022-09-09T00:29:03.677Z,97727.97
2022-09-09T00:31:34.008Z,97726.00
2022-09-09T00:34:12.026Z,97731.50
2022-09-09T00:36:40.824Z,97730.72
2022-09-09T00:39:15.352Z,97720.47
2022-09-09T00:42:01.220Z,97741.72
2022-09-09T00:44:35.550Z,97746.44
2022-09-09T00:47:31.959Z,97746.44
2022-09-09T00:50:03.611Z,97740.97
2022-09-09T00:52:41.697Z,97754.72
2022-09-09T00:55:17.425Z,97757.88
2022-09-09T00:57:47.192Z,97757.06
2022-09-09T01:00:22.189Z,97760.63
2022-09-09T01:03:03.227Z,97760.63
2022-09-09T01:05:38.637Z,97753.53
2022-09-09T01:08:17.889Z,97755.50
2022-09-09T01:10:51.951Z,97759.06
2022-09-09T01:13:25.832Z,97770.81
2022-09-09T01:16:01.159Z,97761.41
2022-09-09T01:18:35.472Z,97760.63
2022-09-09T01:21:09.770Z,97760.63
2022-09-09T01:23:55.944Z,97775.16
2022-09-09T01:26:30.056Z,97775.16
2022-09-09T01:28:57.896Z,97777.09
2022-09-09T01:31:30.729Z,97776.72
2022-09-09T01:33:58.450Z,97780.25
2022-09-09T01:36:31.096Z,97786.16
2022-09-09T01:38:59.440Z,97785.38
2022-09-09T01:41:29.133Z,97787.69
2022-09-09T01:43:57.653Z,97788.88
2022-09-09T01:46:25.989Z,97790.44
2022-09-09T01:48:55.078Z,97783.75
2022-09-09T01:51:23.449Z,97793.56
2022-09-09T01:53:51.753Z,97799.06
2022-09-09T01:56:35.894Z,97793.56
2022-09-09T01:59:16.925Z,97797.06
2022-09-09T02:01:59.401Z,97809.25
2022-09-09T02:04:38.645Z,97797.44
2022-09-09T02:07:18.736Z,97804.50
2022-09-09T02:09:52.674Z,97809.19
2022-09-09T02:12:26.617Z,97803.66
2022-09-09T02:14:58.226Z,97817.03
2022-09-09T02:17:30.973Z,97816.25
2022-09-09T02:20:06.893Z,97813.06
2022-09-09T02:22:37.382Z,97811.50
2022-09-09T02:25:07.492Z,97800.06
2022-09-09T02:27:36.956Z,97822.47
2022-09-09T02:30:06.773Z,97824.03
2022-09-09T02:32:37.394Z,97827.94
2022-09-09T02:35:11.344Z,97834.63
2022-09-09T02:37:42.577Z,97834.97
2022-09-09T02:40:14.366Z,97830.25
2022-09-09T02:42:44.995Z,97832.53
2022-09-09T02:45:16.209Z,97837.28
2022-09-09T02:47:50.024Z,97834.91
2022-09-09T02:50:21.908Z,97840.41
2022-09-09T02:53:02.083Z,97850.66
2022-09-09T02:55:39.557Z,97851.47
2022-09-09T02:58:12.987Z,97856.97
2022-09-09T03:00:42.196Z,97856.19
2022-09-09T03:03:11.108Z,97860.09
2022-09-09T03:05:39.593Z,97850.22
2022-09-09T03:08:08.477Z,97867.97
2022-09-09T03:10:37.915Z,97860.09
2022-09-09T03:13:06.293Z,97861.69
2022-09-09T03:15:36.162Z,97860.91
2022-09-09T03:18:04.269Z,97860.94
2022-09-09T03:20:32.606Z,97859.34
2022-09-09T03:23:02.498Z,97857.75
2022-09-09T03:25:30.893Z,97856.19
2022-09-09T03:27:58.719Z,97861.69
2022-09-09T03:30:28.548Z,97859.31
2022-09-09T03:32:58.380Z,97859.72
2022-09-09T03:35:26.161Z,97860.88
2022-09-09T03:37:55.356Z,97850.66
2022-09-09T03:40:24.298Z,97852.19
2022-09-09T03:42:52.066Z,97865.56
2022-09-09T03:45:20.339Z,97865.56
2022-09-09T03:47:48.256Z,97870.28
2022-09-09T03:50:17.364Z,97873.47
2022-09-09T03:52:45.236Z,97872.25
2022-09-09T03:55:13.082Z,97864.81
2022-09-09T03:57:40.809Z,97874.22
2022-09-09T04:00:10.553Z,97868.34
2022-09-09T04:02:38.764Z,97873.09
2022-09-09T04:05:07.896Z,97873.88
2022-09-09T04:07:37.150Z,97877.41
2022-09-09T04:10:05.614Z,97875.44
2022-09-09T04:12:33.379Z,97872.69
2022-09-09T04:15:03.006Z,97875.06
2022-09-09T04:17:31.141Z,97871.91
2022-09-09T04:19:59.076Z,97874.31
2022-09-09T04:22:27.118Z,97873.50
2022-09-09T04:24:56.373Z,97875.09
2022-09-09T04:27:24.070Z,97880.97
2022-09-09T04:29:52.300Z,97873.94
2022-09-09T04:32:20.352Z,97867.28
2022-09-09T04:34:49.068Z,97868.06
2022-09-09T04:37:17.256Z,97871.19
2022-09-09T04:39:46.199Z,97869.63
2022-09-09T04:42:15.464Z,97874.44
2022-09-09T04:44:43.402Z,97866.63
2022-09-09T04:47:11.817Z,97870.44
2022-09-09T04:49:40.199Z,97868.09
2022-09-09T04:52:08.062Z,97874.06
2022-09-09T04:54:36.061Z,97870.16
2022-09-09T04:57:03.836Z,97882.22
2022-09-09T04:59:33.196Z,97882.31
2022-09-09T05:02:01.925Z,97883.06
2022-09-09T05:04:32.449Z,97888.22
2022-09-09T05:07:00.366Z,97892.50
2022-09-09T05:09:28.159Z,97885.47
2022-09-09T05:11:56.905Z,97890.59
2022-09-09T05:14:25.026Z,97895.31
2022-09-09T05:16:54.161Z,97898.88
2022-09-09T05:19:21.852Z,97894.19
2022-09-09T05:21:50.954Z,97895.34
2022-09-09T05:24:19.416Z,97889.41
2022-09-09T05:26:47.301Z,97901.97
2022-09-09T05:29:15.305Z,97890.19
2022-09-09T05:31:43.244Z,97893.31
2022-09-09T05:34:12.546Z,97887.81
2022-09-09T05:36:40.947Z,97894.88
2022-09-09T05:39:08.759Z,97897.63
2022-09-09T05:41:36.926Z,97900.41
2022-09-09T05:44:05.115Z,97894.13
2022-09-09T05:46:33.063Z,97900.06
2022-09-09T05:49:01.229Z,97907.94
2022-09-09T05:51:31.896Z,97915.44
2022-09-09T05:54:00.378Z,97913.13
2022-09-09T05:56:29.939Z,97909.19
2022-09-09T05:58:58.454Z,97919.84
2022-09-09T06:01:28.511Z,97929.69
2022-09-09T06:03:56.668Z,97916.69
2022-09-09T06:06:27.163Z,97934.41
2022-09-09T06:08:58.546Z,97942.31
2022-09-09T06:11:28.709Z,97935.63
2022-09-09T06:13:56.630Z,97945.47
2022-09-09T06:16:26.237Z,97945.47
2022-09-09T06:18:55.592Z,97935.69
2022-09-09T06:21:25.515Z,97944.75
2022-09-09T06:23:56.747Z,97946.34
2022-09-09T06:26:29.940Z,97944.75
2022-09-09T06:28:58.968Z,97943.97
2022-09-09T06:31:31.220Z,97943.97
2022-09-09T06:34:00.744Z,97945.13
2022-09-09T06:36:29.696Z,97933.72
2022-09-09T06:38:58.400Z,97940.00
2022-09-09T06:41:30.095Z,97930.56
2022-09-09T06:43:58.161Z,97935.69
2022-09-09T06:46:28.704Z,97927.41
2022-09-09T06:48:59.732Z,97937.66
2022-09-09T06:51:29.575Z,97935.28
2022-09-09T06:53:59.696Z,97929.41
2022-09-09T06:56:30.329Z,97931.31
2022-09-09T06:59:01.968Z,97924.22
2022-09-09T07:01:31.392Z,97927.34
2022-09-09T07:04:00.754Z,97927.38
2022-09-09T07:06:30.433Z,97929.28
2022-09-09T07:09:00.533Z,97928.47
2022-09-09T07:11:31.694Z,97935.13
2022-09-09T07:14:01.057Z,97935.47
2022-09-09T07:16:30.449Z,97933.50
2022-09-09T07:18:58.712Z,97935.00
2022-09-09T07:21:28.280Z,97933.34
2022-09-09T07:23:56.884Z,97924.66
2022-09-09T07:26:26.629Z,97921.53
2022-09-09T07:28:56.989Z,97916.91
2022-09-09T07:31:27.107Z,97928.78
2022-09-09T07:33:55.615Z,97929.44
2022-09-09T07:36:26.447Z,97938.81
2022-09-09T07:38:58.514Z,97934.00
2022-09-09T07:41:28.002Z,97939.13
2022-09-09T07:43:57.106Z,97939.53
2022-09-09T07:46:27.971Z,97947.31
2022-09-09T07:48:57.856Z,97941.91
2022-09-09T07:51:28.856Z,97940.91
2022-09-09T07:53:59.467Z,97939.16
2022-09-09T07:56:28.993Z,97945.81
2022-09-09T07:58:59.627Z,97946.81
2022-09-09T08:01:30.172Z,97949.31
2022-09-09T08:04:01.975Z,97947.34
2022-09-09T08:06:32.005Z,97950.84
2022-09-09T08:09:00.084Z,97950.66
2022-09-09T08:11:33.230Z,97956.19
2022-09-09T08:14:05.661Z,97956.19
2022-09-09T08:16:37.380Z,97961.94
2022-09-09T08:19:06.542Z,97964.09
2022-09-09T08:21:35.011Z,97953.94
2022-09-09T08:24:03.643Z,97967.59
2022-09-09T08:26:33.727Z,97959.97
2022-09-09T08:29:03.481Z,97960.22
2022-09-09T08:31:35.335Z,97958.16
2022-09-09T08:34:04.712Z,97955.34
2022-09-09T08:36:35.756Z,97958.03
2022-09-09T08:39:04.054Z,97961.59
2022-09-09T08:41:55.832Z,97973.75
2022-09-09T08:44:36.995Z,97976.16
2022-09-09T08:47:17.832Z,97969.75
2022-09-09T08:49:57.111Z,97970.34
2022-09-09T08:52:30.092Z,97968.94
2022-09-09T08:55:04.889Z,97977.91
2022-09-09T08:57:34.271Z,97976.78
2022-09-09T09:00:02.068Z,97974.50
2022-09-09T09:02:41.986Z,97977.41
2022-09-09T09:05:21.092Z,97987.88
2022-09-09T09:08:01.560Z,97987.25
2022-09-09T09:10:44.967Z,97974.97
2022-09-09T09:13:17.830Z,97965.88
2022-09-09T09:15:50.638Z,97968.75
2022-09-09T09:18:20.069Z,97965.78
2022-09-09T09:20:56.032Z,97972.41
2022-09-09T09:23:27.215Z,97974.06
2022-09-09T09:26:01.584Z,97968.22
2022-09-09T09:28:32.196Z,97966.88
2022-09-09T09:31:05.369Z,97973.75
2022-09-09T09:33:41.485Z,97964.84
2022-09-09T09:36:10.056Z,97964.13
2022-09-09T09:41:36.184Z,97963.78
2022-09-09T09:44:05.578Z,97968.91
2022-09-09T09:46:34.323Z,97965.13
2022-09-09T09:49:06.432Z,97961.56
2022-09-09T09:51:36.480Z,97960.06
2022-09-09T09:54:27.000Z,97973.56
2022-09-09T09:56:55.156Z,97963.88
2022-09-09T09:59:41.318Z,97951.63
2022-09-09T10:02:17.021Z,97952.75
2022-09-09T10:04:47.283Z,97952.94
2022-09-09T10:07:20.582Z,97943.38
2022-09-09T10:09:54.705Z,97954.78
2022-09-09T10:12:33.834Z,97953.78
2022-09-09T10:15:07.882Z,97966.81
2022-09-09T10:17:51.117Z,97969.59
2022-09-09T10:20:33.133Z,97960.84
2022-09-09T10:23:22.621Z,97959.72
2022-09-09T10:26:14.610Z,97963.41
2022-09-09T10:29:00.708Z,97959.78
2022-09-09T10:31:40.076Z,97968.50
2022-09-09T10:34:20.984Z,97972.25
2022-09-09T10:36:52.294Z,97975.34
2022-09-09T10:39:39.217Z,97973.00
2022-09-09T10:42:14.344Z,97970.34
2022-09-09T10:44:58.060Z,97963.38
2022-09-09T10:47:44.409Z,97968.09
2022-09-09T10:51:00.051Z,97966.13
2022-09-09T10:53:37.603Z,97980.59
2022-09-09T10:56:10.313Z,97974.19
2022-09-09T10:58:44.053Z,97964.09
2022-09-09T11:01:18.502Z,97961.06
2022-09-09T11:03:52.412Z,97965.50
2022-09-09T11:06:23.744Z,97959.09
2022-09-09T11:08:57.086Z,97972.38
2022-09-09T11:11:32.124Z,97976.78
2022-09-09T11:14:06.310Z,97977.81
2022-09-09T11:16:43.216Z,97977.09
2022-09-09T11:19:19.626Z,97970.53
2022-09-09T11:21:50.446Z,97962.03
2022-09-09T11:24:24.787Z,97969.09
2022-09-09T11:26:58.588Z,97970.81
2022-09-09T11:29:46.030Z,97973.78
2022-09-09T11:32:33.146Z,97971.47
2022-09-09T11:35:09.863Z,97966.59
2022-09-09T11:37:56.184Z,97973.09
2022-09-09T11:40:27.239Z,97968.91
2022-09-09T11:43:07.388Z,97958.38
2022-09-09T11:45:37.691Z,97962.13
2022-09-09T11:48:07.754Z,97956.28
2022-09-09T11:50:38.402Z,97965.31
2022-09-09T11:53:21.793Z,97969.38
2022-09-09T11:56:06.688Z,97973.16
2022-09-09T11:58:39.937Z,97964.50
2022-09-09T12:01:35.753Z,97959.06
2022-09-09T12:04:30.125Z,97963.50
2022-09-09T12:07:01.805Z,97965.03
2022-09-09T12:09:35.945Z,97965.53
2022-09-09T12:12:09.986Z,97958.56
2022-09-09T12:14:40.447Z,97967.09
2022-09-09T12:17:20.375Z,97967.78
2022-09-09T12:19:49.106Z,97963.44
2022-09-09T12:22:28.321Z,97966.63
2022-09-09T12:25:06.918Z,97966.81
2022-09-09T12:27:47.314Z,97960.38
2022-09-09T12:30:18.031Z,97961.78
2022-09-09T12:32:46.418Z,97964.38
2022-09-09T12:35:22.280Z,97964.03
2022-09-09T12:37:54.965Z,97957.03
2022-09-09T12:40:24.989Z,97954.56
2022-09-09T12:42:56.170Z,97961.50
2022-09-09T12:45:27.101Z,97959.16
2022-09-09T12:47:59.325Z,97970.63
2022-09-09T12:50:31.110Z,97973.75
2022-09-09T12:53:01.441Z,97972.69
2022-09-09T12:55:34.613Z,97968.69
2022-09-09T12:58:06.933Z,97947.19
2022-09-09T13:00:37.097Z,97951.41
2022-09-09T13:03:18.465Z,97950.53
2022-09-09T13:05:47.921Z,97946.81
2022-09-09T13:08:20.670Z,97940.47
2022-09-09T13:10:56.349Z,97939.47
2022-09-09T13:13:30.900Z,97938.94
2022-09-09T13:16:00.930Z,97935.59
2022-09-09T13:18:31.900Z,97946.97
2022-09-09T13:21:00.114Z,97948.06
2022-09-09T13:23:31.141Z,97944.88
2022-09-09T13:26:01.203Z,97925.22
2022-09-09T13:28:33.831Z,97933.81
2022-09-09T13:31:04.615Z,97934.63
2022-09-09T13:33:35.043Z,97927.56
2022-09-09T13:36:05.998Z,97939.63
2022-09-09T13:38:37.593Z,97932.41
2022-09-09T13:41:08.191Z,97930.91
2022-09-09T13:43:40.461Z,97928.25
2022-09-09T13:46:33.962Z,97925.13
2022-09-09T13:49:03.623Z,97921.84
2022-09-09T13:51:37.988Z,97925.53
2022-09-09T13:54:07.349Z,97927.47
2022-09-09T13:56:36.177Z,97922.91
2022-09-09T13:59:07.417Z,97909.16
2022-09-09T14:01:35.870Z,97914.84
2022-09-09T14:04:04.340Z,97921.66
2022-09-09T14:06:33.153Z,97910.72
2022-09-09T14:09:01.212Z,97908.88
2022-09-09T14:11:29.453Z,97917.63
2022-09-09T14:13:57.172Z,97913.09
2022-09-09T14:16:28.737Z,97907.41
2022-09-09T14:18:58.161Z,97913.19
2022-09-09T14:21:26.237Z,97912.31
2022-09-09T14:23:54.602Z,97896.81
2022-09-09T14:26:24.475Z,97890.22
2022-09-09T14:28:55.443Z,97894.44
2022-09-09T14:31:27.081Z,97890.78
2022-09-09T14:33:55.245Z,97898.72
2022-09-09T14:36:23.813Z,97893.47
2022-09-09T14:38:52.913Z,97886.28
2022-09-09T14:41:23.525Z,97885.72
2022-09-09T14:43:52.571Z,97889.66
2022-09-09T14:46:22.149Z,97886.94
2022-09-09T14:48:51.928Z,97895.56
2022-09-09T14:51:23.106Z,97888.88
2022-09-09T14:53:53.808Z,97891.44
2022-09-09T14:56:24.049Z,97889.00
2022-09-09T14:58:53.301Z,97889.53
2022-09-09T15:01:23.173Z,97888.84
2022-09-09T15:03:55.122Z,97880.09
2022-09-09T15:06:24.232Z,97880.28
2022-09-09T15:08:53.213Z,97879.41
2022-09-09T15:11:23.693Z,97884.28
2022-09-09T15:13:54.039Z,97881.22
2022-09-09T15:16:24.149Z,97883.34
2022-09-09T15:18:55.732Z,97880.69
2022-09-09T15:21:25.294Z,97880.75
2022-09-09T15:23:53.757Z,97882.53
2022-09-09T15:26:21.829Z,97876.81
2022-09-09T15:28:51.689Z,97885.50
2022-09-09T15:31:21.585Z,97874.47
2022-09-09T15:33:50.349Z,97884.00
2022-09-09T15:36:21.670Z,97883.00
2022-09-09T15:38:50.725Z,97881.63
2022-09-09T15:41:19.868Z,97888.38
2022-09-09T15:43:49.683Z,97872.66
2022-09-09T15:46:28.124Z,97878.63
2022-09-09T15:48:58.041Z,97888.16
2022-09-09T15:51:42.234Z,97881.25
2022-09-09T15:54:13.320Z,97891.53
2022-09-09T15:56:41.908Z,97890.63
2022-09-09T15:59:09.831Z,97905.44
2022-09-09T16:01:37.911Z,97902.97
2022-09-09T16:04:06.307Z,97910.19
2022-09-09T16:06:35.781Z,97904.88
2022-09-09T16:09:06.211Z,97900.41
2022-09-09T16:11:36.604Z,97892.53
2022-09-09T16:14:06.292Z,97892.09
2022-09-09T16:16:35.994Z,97889.72
2022-09-09T16:19:07.301Z,97899.69
2022-09-09T16:21:40.605Z,97890.56
2022-09-09T16:24:10.504Z,97889.84
2022-09-09T16:26:40.132Z,97877.72
2022-09-09T16:29:09.706Z,97898.75
2022-09-09T16:31:38.752Z,97893.53
2022-09-09T16:34:06.657Z,97899.63
2022-09-09T16:36:37.765Z,97897.69
2022-09-09T16:39:06.949Z,97894.09
2022-09-09T16:41:35.501Z,97885.63
2022-09-09T16:44:05.399Z,97889.91
2022-09-09T16:46:36.386Z,97870.91
2022-09-09T16:49:07.053Z,97878.53
2022-09-09T16:51:38.816Z,97880.25
2022-09-09T16:54:08.926Z,97874.97
2022-09-09T16:56:42.089Z,97873.69
2022-09-09T16:59:11.833Z,97872.97
2022-09-09T17:01:42.415Z,97868.72
2022-09-09T17:04:14.125Z,97881.19
2022-09-09T17:06:43.774Z,97871.84
2022-09-09T17:09:13.913Z,97881.44
2022-09-09T17:11:42.370Z,97872.09
2022-09-09T17:14:14.972Z,97870.19
2022-09-09T17:16:42.756Z,97865.16
2022-09-09T17:19:11.673Z,97872.50
2022-09-09T17:21:59.902Z,97887.53
2022-09-09T17:24:30.236Z,97874.16
2022-09-09T17:26:58.812Z,97882.19
2022-09-09T17:29:26.631Z,97890.25
2022-09-09T17:31:54.727Z,97883.53
2022-09-09T17:34:22.794Z,97892.66
2022-09-09T17:36:50.690Z,97882.44
2022-09-09T17:39:18.445Z,97897.91
2022-09-09T17:41:47.758Z,97895.19
2022-09-09T17:44:15.780Z,97895.22
2022-09-09T17:46:46.319Z,97898.03
2022-09-09T17:49:16.771Z,97896.94
2022-09-09T17:51:46.305Z,97896.56
2022-09-09T17:54:15.874Z,97896.66
2022-09-09T17:56:44.935Z,97900.69
2022-09-09T17:59:18.625Z,97904.72
2022-09-09T18:01:50.979Z,97903.19
2022-09-09T18:04:19.821Z,97913.81
2022-09-09T18:06:49.461Z,97904.78
2022-09-09T18:09:18.657Z,97917.06
2022-09-09T18:11:49.222Z,97924.34
2022-09-09T18:14:20.558Z,97916.66
2022-09-09T18:16:48.691Z,97925.38
2022-09-09T18:19:19.872Z,97935.09
2022-09-09T18:21:49.138Z,97919.44
2022-09-09T18:24:19.194Z,97916.44
2022-09-09T18:26:48.239Z,97911.72
2022-09-09T18:29:20.835Z,97914.91
2022-09-09T18:31:49.694Z,97918.84
2022-09-09T18:34:19.265Z,97919.25
2022-09-09T18:36:49.399Z,97922.00
2022-09-09T18:39:19.333Z,97918.06
2022-09-09T18:41:48.964Z,97925.91
2022-09-09T18:44:20.765Z,97933.00
2022-09-09T18:46:50.402Z,97929.09
2022-09-09T18:49:18.188Z,97929.09
2022-09-09T18:51:46.874Z,97926.72
2022-09-09T18:54:17.433Z,97940.13
2022-09-09T18:56:45.520Z,97934.69
2022-09-09T18:59:15.365Z,97930.84
2022-09-09T19:01:45.329Z,97934.78
2022-09-09T19:04:13.418Z,97930.84
2022-09-09T19:06:42.830Z,97934.81
2022-09-09T19:09:11.757Z,97940.31
2022-09-09T19:11:40.304Z,97934.53
2022-09-09T19:14:11.513Z,97947.63
2022-09-09T19:16:40.439Z,97931.09
2022-09-09T19:19:13.365Z,97937.41
2022-09-09T19:21:42.454Z,97912.22
2022-09-09T19:24:14.287Z,97919.31
2022-09-09T19:26:43.956Z,97924.84
2022-09-09T19:29:15.281Z,97916.59
2022-09-09T19:32:01.915Z,97917.78
2022-09-09T19:34:33.511Z,97909.91
2022-09-09T19:37:01.609Z,97909.91
2022-09-09T19:39:29.477Z,97914.25
2022-09-09T19:41:57.301Z,97908.38
2022-09-09T19:44:25.704Z,97909.19
2022-09-09T19:46:53.472Z,97910.78
2022-09-09T19:49:21.331Z,97920.28
2022-09-09T19:51:50.660Z,97915.94
2022-09-09T19:54:18.525Z,97917.94
2022-09-09T19:56:46.678Z,97920.31
2022-09-09T19:59:15.719Z,97911.28
2022-09-09T20:01:45.530Z,97917.22
2022-09-09T20:04:17.194Z,97923.53
2022-09-09T20:06:45.530Z,97924.28
2022-09-09T20:09:18.237Z,97920.34
2022-09-09T20:11:48.051Z,97923.47
2022-09-09T20:14:17.097Z,97918.34
2022-09-09T20:16:45.801Z,97915.56
2022-09-09T20:19:16.086Z,97907.72
2022-09-09T20:21:47.861Z,97918.31
2022-09-09T20:24:19.734Z,97919.50
2022-09-09T20:26:49.103Z,97918.69
2022-09-09T20:29:19.810Z,97916.31
2022-09-09T20:31:48.516Z,97909.22
2022-09-09T20:34:18.686Z,97915.50
2022-09-09T20:36:48.433Z,97912.34
2022-09-09T20:39:19.865Z,97914.69
2022-09-09T20:41:48.341Z,97902.09
2022-09-09T20:44:18.196Z,97916.25
2022-09-09T20:46:48.873Z,97902.47
2022-09-09T20:49:17.989Z,97921.78
2022-09-09T20:51:47.554Z,97924.53
2022-09-09T20:54:18.768Z,97920.63
2022-09-09T20:56:48.055Z,97925.34
2022-09-09T20:59:17.983Z,97923.41
2022-09-09T21:01:47.582Z,97930.50
2022-09-09T21:04:18.715Z,97929.69
2022-09-09T21:06:47.100Z,97924.59
2022-09-09T21:09:15.179Z,97923.41
2022-09-09T21:11:44.470Z,97913.16
2022-09-09T21:14:12.556Z,97914.75
2022-09-09T21:16:40.347Z,97908.44
2022-09-09T21:19:08.053Z,97914.72
2022-09-09T21:21:36.236Z,97917.88
2022-09-09T21:24:04.523Z,97924.97
2022-09-09T21:26:32.378Z,97898.16
2022-09-09T21:29:01.844Z,97934.41
2022-09-09T21:31:29.883Z,97934.00
2022-09-09T21:33:57.670Z,97927.31
2022-09-09T21:36:28.108Z,97933.56
2022-09-09T21:38:55.889Z,97927.63
2022-09-09T21:41:24.190Z,97921.75
2022-09-09T21:43:53.927Z,97913.44
2022-09-09T21:46:26.469Z,97902.72
2022-09-09T21:48:56.629Z,97908.22
2022-09-09T21:51:26.373Z,97905.88
2022-09-09T21:53:57.023Z,97903.50
2022-09-09T21:56:26.611Z,97898.44
2022-09-09T21:58:58.464Z,97901.22
2022-09-09T22:01:27.909Z,97902.81
2022-09-09T22:03:56.273Z,97908.31
2022-09-09T22:06:24.072Z,97911.47
2022-09-09T22:08:52.136Z,97913.13
2022-09-09T22:11:22.154Z,97899.75
2022-09-09T22:13:50.634Z,97909.94
2022-09-09T22:16:21.381Z,97906.75
2022-09-09T22:18:53.735Z,97902.81
2022-09-09T22:21:21.959Z,97901.56
2022-09-09T22:23:54.060Z,97896.50
2022-09-09T22:26:23.032Z,97901.25
2022-09-09T22:28:51.725Z,97902.78
2022-09-09T22:31:20.808Z,97889.38
2022-09-09T22:33:49.273Z,97884.56
2022-09-09T22:36:19.739Z,97882.19
2022-09-09T22:38:47.929Z,97874.63
2022-09-09T22:41:17.009Z,97884.03
2022-09-09T22:43:45.454Z,97880.47
2022-09-09T22:46:13.882Z,97875.00
2022-09-09T22:48:42.071Z,97870.34
2022-09-09T22:51:12.430Z,97869.56
2022-09-09T22:53:42.816Z,97868.06
2022-09-09T22:56:15.285Z,97861.41
2022-09-09T22:58:43.158Z,97856.34
2022-09-09T23:01:15.442Z,97857.16
2022-09-09T23:03:46.093Z,97862.25
2022-09-09T23:06:21.969Z,97863.78
2022-09-09T23:08:55.651Z,97859.38
2022-09-09T23:11:26.324Z,97860.94
2022-09-09T23:13:55.937Z,97861.63
2022-09-09T23:16:25.788Z,97857.69
2022-09-09T23:18:55.478Z,97838.78
2022-09-09T23:21:26.138Z,97844.31
2022-09-09T23:23:57.749Z,97829.41
2022-09-09T23:26:27.081Z,97845.13
2022-09-09T23:28:58.358Z,97850.63
2022-09-09T23:31:27.691Z,97858.47
2022-09-09T23:33:57.996Z,97850.22
2022-09-09T23:36:29.441Z,97848.31
2022-09-09T23:38:59.685Z,97842.03
2022-09-09T23:41:28.072Z,97835.69
2022-09-09T23:43:57.661Z,97841.03
2022-09-09T23:46:28.483Z,97837.81
2022-09-09T23:48:58.206Z,97843.19
2022-09-09T23:51:30.501Z,97840.09
2022-09-09T23:54:02.871Z,97845.63
2022-09-09T23:56:33.883Z,97846.41
2022-09-09T23:59:02.271Z,97844.06
